Time;durP1;ratioP1;P1;durP2;ratioP2;P2;SDS_P1;SDS_P2;PMS_P1;PMS_P2;Temp;Humidity;BMP_temperature;BMP_pressure;BME280_temperature;BME280_humidity;BME280_pressure;Samples;Min_cycle;Max_cycle;Signal;HPM_P1;HPM_P2
2021/03/04 00:01:33;;;;;;;140.27;68.60;;;0.20;92.60;;;;;;5066623;28;20028;-72
2021/03/04 00:03:58;;;;;;;125.55;66.45;;;0.20;92.80;;;;;;5071466;28;20517;-72
2021/03/04 00:06:24;;;;;;;138.45;68.78;;;0.20;92.30;;;;;;5068847;28;20147;-74
2021/03/04 00:08:50;;;;;;;145.95;68.20;;;0.20;92.20;;;;;;5071683;28;20046;-72
2021/03/04 00:11:16;;;;;;;137.68;67.75;;;0.20;92.00;;;;;;5073160;28;20043;-72
2021/03/04 00:13:42;;;;;;;139.05;66.95;;;0.30;92.20;;;;;;5070796;28;20028;-74
2021/03/04 00:16:08;;;;;;;136.73;66.22;;;0.20;92.00;;;;;;5071569;28;20036;-72
2021/03/04 00:18:33;;;;;;;127.40;62.92;;;0.20;92.00;;;;;;5068164;28;20016;-72
2021/03/04 00:20:59;;;;;;;126.57;62.58;;;0.20;92.10;;;;;;5069171;28;20056;-72
2021/03/04 00:23:25;;;;;;;123.75;61.30;;;0.30;92.10;;;;;;5073401;28;20024;-72
2021/03/04 00:25:50;;;;;;;139.95;65.25;;;0.30;92.20;;;;;;5068572;28;20107;-72
2021/03/04 00:28:16;;;;;;;134.40;68.07;;;0.30;91.90;;;;;;5070196;28;20322;-74
2021/03/04 00:30:42;;;;;;;126.13;64.32;;;0.30;92.10;;;;;;5069114;28;20037;-74
2021/03/04 00:33:07;;;;;;;139.38;67.72;;;0.30;92.20;;;;;;5062744;28;20037;-74
2021/03/04 00:35:33;;;;;;;128.50;64.47;;;0.20;92.10;;;;;;5071227;28;20029;-72
2021/03/04 00:37:59;;;;;;;137.85;68.88;;;0.20;92.30;;;;;;5072081;28;20032;-72
2021/03/04 00:40:25;;;;;;;138.70;70.05;;;0.20;92.60;;;;;;5071459;28;20402;-74
2021/03/04 00:42:52;;;;;;;140.35;70.22;;;0.20;92.70;;;;;;5070611;28;20118;-73
2021/03/04 00:45:21;;;;;;;133.48;66.65;;;0.20;92.20;;;;;;5062806;28;20099;-72
2021/03/04 00:47:47;;;;;;;138.27;68.63;;;0.20;91.90;;;;;;5061603;28;20060;-73
2021/03/04 00:50:14;;;;;;;130.30;68.47;;;0.20;91.70;;;;;;5071439;28;20375;-73
2021/03/04 00:52:40;;;;;;;134.40;68.40;;;0.20;91.70;;;;;;5072736;28;20074;-72
2021/03/04 00:55:06;;;;;;;134.82;70.07;;;0.20;91.60;;;;;;5070615;28;20480;-72
2021/03/04 00:57:33;;;;;;;134.25;69.32;;;0.20;92.00;;;;;;5073077;28;20352;-72
2021/03/04 00:59:58;;;;;;;143.57;73.93;;;0.20;91.90;;;;;;5070379;28;20107;-72
2021/03/04 01:02:24;;;;;;;135.00;68.80;;;0.30;91.90;;;;;;5065956;28;20443;-73
2021/03/04 01:04:50;;;;;;;138.52;68.82;;;0.30;91.80;;;;;;5074475;28;20037;-72
2021/03/04 01:07:16;;;;;;;137.57;68.88;;;0.30;91.90;;;;;;5072026;28;20154;-74
2021/03/04 01:09:41;;;;;;;141.82;67.47;;;0.30;91.80;;;;;;5071021;28;20340;-72
2021/03/04 01:12:08;;;;;;;138.85;69.25;;;0.20;91.90;;;;;;5066753;28;20147;-72
2021/03/04 01:14:34;;;;;;;132.32;70.20;;;0.20;91.80;;;;;;5072170;28;20024;-73
2021/03/04 01:16:59;;;;;;;129.55;69.07;;;0.20;91.90;;;;;;5070054;28;20020;-73
2021/03/04 01:19:25;;;;;;;142.23;70.28;;;0.20;92.10;;;;;;5070902;28;21174;-73
2021/03/04 01:21:51;;;;;;;131.30;65.88;;;0.20;92.10;;;;;;5067006;28;20104;-73
2021/03/04 01:24:17;;;;;;;131.98;66.10;;;0.20;92.20;;;;;;5068004;28;20174;-73
2021/03/04 01:26:43;;;;;;;146.35;69.28;;;0.20;91.90;;;;;;5072400;28;20040;-73
2021/03/04 01:29:09;;;;;;;125.25;64.85;;;0.20;91.90;;;;;;5069201;28;20020;-72
2021/03/04 01:31:34;;;;;;;136.25;66.63;;;0.20;92.10;;;;;;5066745;28;20029;-71
2021/03/04 01:34:00;;;;;;;128.02;66.18;;;0.20;92.10;;;;;;5068996;28;20505;-74
2021/03/04 01:36:26;;;;;;;137.35;66.05;;;0.20;92.00;;;;;;5069930;28;20072;-73
2021/03/04 01:38:51;;;;;;;132.48;69.15;;;0.10;92.10;;;;;;5070167;28;20028;-72
2021/03/04 01:41:17;;;;;;;131.52;66.72;;;0.20;92.20;;;;;;5067987;28;20029;-73
2021/03/04 01:43:43;;;;;;;130.35;64.75;;;0.20;92.00;;;;;;5070956;28;20020;-72
2021/03/04 01:46:09;;;;;;;133.93;65.35;;;0.20;91.90;;;;;;5071475;28;20072;-74
2021/03/04 01:48:35;;;;;;;136.63;67.40;;;0.20;92.00;;;;;;5067536;28;20029;-72
2021/03/04 01:51:01;;;;;;;134.27;68.03;;;0.10;91.90;;;;;;5070298;28;20429;-71
2021/03/04 01:53:26;;;;;;;129.23;65.00;;;0.10;91.70;;;;;;5071553;28;20531;-73
2021/03/04 01:55:54;;;;;;;129.55;65.25;;;0.20;91.70;;;;;;5070893;28;20031;-73
2021/03/04 01:58:19;;;;;;;127.15;66.15;;;0.20;91.60;;;;;;5069861;28;20024;-73
2021/03/04 02:00:45;;;;;;;131.05;61.90;;;0.10;91.80;;;;;;5068164;28;20033;-73
2021/03/04 02:03:11;;;;;;;121.35;61.50;;;0.10;91.90;;;;;;5071788;28;20373;-73
2021/03/04 02:05:37;;;;;;;123.00;61.92;;;0.10;92.00;;;;;;5063093;28;20040;-72
2021/03/04 02:08:23;;;;;;;129.13;63.83;;;0.00;91.80;;;;;;5071943;28;20030;-72
2021/03/04 02:11:14;;;;;;;130.43;63.80;;;0.00;92.10;;;;;;5068647;28;20126;-72
2021/03/04 02:13:50;;;;;;;129.35;64.38;;;-0.10;91.90;;;;;;5070335;28;20040;-74
2021/03/04 02:16:33;;;;;;;129.85;63.75;;;-0.10;92.30;;;;;;5071132;28;20507;-72
2021/03/04 02:19:02;;;;;;;127.88;64.82;;;-0.10;92.70;;;;;;5068134;28;20369;-72
2021/03/04 02:21:53;;;;;;;125.40;64.70;;;-0.10;93.00;;;;;;5067219;28;20067;-72
2021/03/04 02:24:37;;;;;;;123.60;64.50;;;-0.10;92.70;;;;;;5069708;28;20815;-72
2021/03/04 02:27:10;;;;;;;128.38;63.42;;;0.00;92.70;;;;;;5068188;28;20032;-72
2021/03/04 02:29:39;;;;;;;125.22;64.63;;;-0.10;92.70;;;;;;5066832;28;20028;-73
2021/03/04 02:32:07;;;;;;;123.50;63.85;;;-0.10;92.80;;;;;;5068785;28;20036;-72
2021/03/04 02:34:35;;;;;;;130.30;66.50;;;-0.10;92.80;;;;;;5067242;28;20023;-72
2021/03/04 02:37:01;;;;;;;128.50;66.82;;;-0.20;92.70;;;;;;5065917;28;20025;-72
2021/03/04 02:39:28;;;;;;;126.97;66.32;;;-0.10;92.80;;;;;;5068441;28;20430;-71
2021/03/04 02:41:54;;;;;;;131.40;66.90;;;-0.20;93.00;;;;;;5070593;28;20107;-73
2021/03/04 02:44:23;;;;;;;126.07;63.10;;;-0.20;93.10;;;;;;5071268;28;20024;-74
2021/03/04 02:46:50;;;;;;;124.88;63.08;;;-0.20;93.20;;;;;;5068721;28;20025;-73
2021/03/04 02:49:17;;;;;;;122.45;62.80;;;-0.10;92.80;;;;;;5067487;28;20029;-73
2021/03/04 02:51:44;;;;;;;112.60;62.35;;;-0.10;92.80;;;;;;5066792;28;20486;-73
2021/03/04 02:54:10;;;;;;;130.95;63.58;;;-0.10;92.70;;;;;;5067971;28;20497;-73
2021/03/04 02:56:37;;;;;;;126.78;63.90;;;0.00;92.60;;;;;;5071184;28;20078;-73
2021/03/04 02:59:05;;;;;;;133.05;63.75;;;0.00;92.40;;;;;;5068673;28;20100;-73
2021/03/04 03:01:32;;;;;;;123.35;61.25;;;0.00;92.20;;;;;;5069091;28;20086;-73
2021/03/04 03:03:59;;;;;;;119.80;62.90;;;0.00;92.10;;;;;;5068456;28;20047;-74
2021/03/04 03:06:26;;;;;;;125.57;63.28;;;0.10;92.40;;;;;;5066504;28;20023;-72
2021/03/04 03:08:53;;;;;;;118.53;61.42;;;0.10;92.20;;;;;;5069020;28;20020;-73
2021/03/04 03:11:19;;;;;;;124.95;64.68;;;0.10;92.30;;;;;;5065920;28;20047;-72
2021/03/04 03:13:50;;;;;;;120.15;63.08;;;0.10;92.00;;;;;;5071106;28;20078;-73
2021/03/04 03:16:16;;;;;;;121.57;60.22;;;0.10;91.70;;;;;;5067692;28;20024;-72
2021/03/04 03:18:42;;;;;;;123.97;61.25;;;0.00;91.60;;;;;;5070727;28;20414;-73
2021/03/04 03:21:08;;;;;;;120.65;65.15;;;0.00;91.80;;;;;;5062736;28;20025;-74
2021/03/04 03:23:34;;;;;;;123.78;63.53;;;0.00;91.90;;;;;;5069371;28;20360;-74
2021/03/04 03:26:00;;;;;;;116.80;60.60;;;0.00;91.90;;;;;;5069792;28;20031;-73
2021/03/04 03:28:26;;;;;;;120.55;61.20;;;0.00;91.90;;;;;;5071260;28;20049;-72
2021/03/04 03:30:52;;;;;;;116.25;61.90;;;0.00;92.00;;;;;;5067967;28;20028;-73
2021/03/04 03:33:18;;;;;;;125.68;62.67;;;-0.10;92.30;;;;;;5066490;28;20510;-73
2021/03/04 03:35:47;;;;;;;118.05;61.58;;;-0.10;92.40;;;;;;5070190;28;20037;-73
2021/03/04 03:38:15;;;;;;;123.15;63.42;;;-0.10;92.40;;;;;;5066304;28;20044;-73
2021/03/04 03:40:47;;;;;;;119.63;63.33;;;-0.10;92.30;;;;;;5061565;28;20142;-72
2021/03/04 03:43:15;;;;;;;121.57;62.88;;;-0.10;92.40;;;;;;5069563;28;20028;-73
2021/03/04 03:45:46;;;;;;;117.70;61.72;;;-0.10;92.50;;;;;;5068436;28;20513;-72
2021/03/04 03:48:14;;;;;;;121.93;62.08;;;-0.10;92.80;;;;;;5068030;28;20024;-73
2021/03/04 03:50:45;;;;;;;119.75;63.28;;;-0.10;92.60;;;;;;5070374;28;20033;-73
2021/03/04 03:53:13;;;;;;;122.32;61.45;;;-0.10;92.60;;;;;;5066605;28;20434;-72
2021/03/04 03:55:40;;;;;;;115.22;59.53;;;-0.10;92.80;;;;;;5067003;28;20455;-72
2021/03/04 03:58:07;;;;;;;122.38;62.22;;;0.00;92.60;;;;;;5068719;28;20039;-72
2021/03/04 04:00:33;;;;;;;114.88;59.22;;;0.10;92.60;;;;;;5066282;28;20035;-74
2021/03/04 04:03:01;;;;;;;113.43;60.22;;;0.10;92.40;;;;;;5060718;28;20029;-73
2021/03/04 04:05:27;;;;;;;113.15;60.10;;;0.10;92.10;;;;;;5067543;28;20048;-72
2021/03/04 04:07:54;;;;;;;112.25;61.28;;;0.10;92.00;;;;;;5068579;28;20441;-72
2021/03/04 04:10:23;;;;;;;110.43;59.50;;;0.20;92.20;;;;;;5069577;28;20036;-73
2021/03/04 04:12:49;;;;;;;110.55;60.58;;;0.20;92.20;;;;;;5054316;28;20103;-72
2021/03/04 04:15:14;;;;;;;115.25;58.42;;;0.20;92.00;;;;;;5065232;28;20108;-73
2021/03/04 04:17:40;;;;;;;114.57;58.13;;;0.20;92.00;;;;;;5067288;28;20070;-72
2021/03/04 04:20:07;;;;;;;110.25;57.88;;;0.10;91.90;;;;;;5068752;28;20029;-72
2021/03/04 04:22:33;;;;;;;110.63;58.35;;;0.10;92.10;;;;;;5065247;28;20043;-72
2021/03/04 04:24:59;;;;;;;114.28;57.13;;;0.10;92.10;;;;;;5069973;28;20017;-72
2021/03/04 04:27:26;;;;;;;114.03;56.10;;;0.00;92.10;;;;;;5068368;28;20426;-72
2021/03/04 04:29:52;;;;;;;113.85;54.72;;;0.00;91.90;;;;;;5062332;28;20475;-72
2021/03/04 04:32:18;;;;;;;112.82;56.20;;;0.00;92.10;;;;;;5065289;28;20089;-72
2021/03/04 04:34:43;;;;;;;108.10;55.10;;;-0.10;91.90;;;;;;5067701;28;20029;-72
2021/03/04 04:37:09;;;;;;;112.93;56.53;;;0.00;92.10;;;;;;5068536;28;20107;-72
2021/03/04 04:39:35;;;;;;;109.10;57.88;;;-0.10;92.00;;;;;;5067980;28;20047;-73
2021/03/04 04:42:00;;;;;;;111.93;56.60;;;0.00;92.00;;;;;;5068638;28;20025;-74
2021/03/04 04:44:26;;;;;;;108.75;56.85;;;0.00;92.00;;;;;;5065972;28;20021;-73
2021/03/04 04:46:52;;;;;;;120.32;59.58;;;0.00;92.10;;;;;;5067846;28;20029;-73
2021/03/04 04:49:18;;;;;;;117.30;58.03;;;0.00;91.90;;;;;;5069569;28;20029;-73
2021/03/04 04:51:44;;;;;;;113.43;58.00;;;0.10;92.10;;;;;;5072758;28;20586;-73
2021/03/04 04:54:10;;;;;;;114.80;58.80;;;0.10;92.00;;;;;;5069965;28;20059;-73
2021/03/04 04:56:36;;;;;;;111.15;58.95;;;0.10;92.00;;;;;;5071379;28;20038;-72
2021/03/04 04:59:01;;;;;;;110.13;56.30;;;0.10;92.00;;;;;;5072226;28;20032;-73
2021/03/04 05:01:27;;;;;;;108.30;58.45;;;0.10;92.10;;;;;;5066563;28;20082;-73
2021/03/04 05:03:52;;;;;;;106.13;55.88;;;0.10;92.10;;;;;;5068137;28;20632;-73
2021/03/04 05:06:19;;;;;;;109.65;57.80;;;0.20;92.20;;;;;;5071980;28;20016;-73
2021/03/04 05:08:45;;;;;;;104.35;56.63;;;0.20;92.20;;;;;;5073252;28;20036;-73
2021/03/04 05:11:10;;;;;;;109.75;57.95;;;0.20;92.20;;;;;;5070288;28;20029;-72
2021/03/04 05:13:36;;;;;;;107.80;57.13;;;0.10;92.30;;;;;;5069589;28;20085;-72
2021/03/04 05:16:02;;;;;;;112.28;58.88;;;0.10;92.50;;;;;;5070509;28;20508;-72
2021/03/04 05:18:27;;;;;;;112.97;58.72;;;0.10;92.70;;;;;;5070642;28;20033;-73
2021/03/04 05:20:53;;;;;;;105.88;55.97;;;0.20;92.90;;;;;;5071756;28;20559;-72
2021/03/04 05:23:19;;;;;;;108.93;56.03;;;0.20;93.10;;;;;;5072769;28;20107;-73
2021/03/04 05:25:45;;;;;;;96.35;52.88;;;0.10;93.00;;;;;;5074186;28;20016;-71
2021/03/04 05:28:10;;;;;;;108.22;55.70;;;0.20;93.10;;;;;;5071609;28;20150;-72
2021/03/04 05:30:36;;;;;;;109.35;56.85;;;0.30;92.90;;;;;;5068959;28;20100;-73
2021/03/04 05:33:02;;;;;;;101.50;53.55;;;0.40;92.60;;;;;;5068381;28;20028;-72
2021/03/04 05:35:28;;;;;;;103.82;55.03;;;0.50;92.70;;;;;;5063475;28;20389;-73
2021/03/04 05:37:53;;;;;;;98.97;54.75;;;0.60;92.80;;;;;;5072582;28;20557;-72
2021/03/04 05:40:19;;;;;;;103.93;55.90;;;0.70;92.90;;;;;;5072622;28;20119;-71
2021/03/04 05:42:46;;;;;;;106.95;57.75;;;0.80;93.20;;;;;;5072552;28;20021;-71
2021/03/04 05:45:13;;;;;;;101.13;54.65;;;0.90;93.80;;;;;;5066189;28;20054;-72
2021/03/04 05:47:43;;;;;;;103.70;54.97;;;1.00;93.80;;;;;;5068707;28;20043;-72
2021/03/04 05:50:13;;;;;;;106.80;57.80;;;1.10;93.50;;;;;;5070544;28;20435;-71
2021/03/04 05:52:43;;;;;;;95.75;52.65;;;1.10;93.30;;;;;;5069033;28;20032;-72
2021/03/04 05:55:09;;;;;;;97.70;53.30;;;1.20;93.00;;;;;;5070695;28;20387;-72
2021/03/04 05:57:35;;;;;;;102.57;54.88;;;1.20;93.00;;;;;;5070891;28;20031;-72
2021/03/04 06:00:02;;;;;;;98.43;56.70;;;1.20;93.10;;;;;;5069824;28;20024;-72
2021/03/04 06:02:28;;;;;;;101.78;56.13;;;1.20;93.20;;;;;;5068731;28;20387;-72
2021/03/04 06:04:54;;;;;;;97.13;54.72;;;1.30;93.20;;;;;;5067985;28;20048;-73
2021/03/04 06:07:20;;;;;;;102.32;52.70;;;1.30;93.40;;;;;;5066282;28;20029;-72
2021/03/04 06:09:46;;;;;;;97.40;53.58;;;1.30;93.30;;;;;;5069249;28;20025;-72
2021/03/04 06:12:12;;;;;;;100.63;53.35;;;1.30;93.10;;;;;;5067922;28;20404;-72
2021/03/04 06:14:38;;;;;;;98.97;52.58;;;1.30;93.20;;;;;;5071701;28;20051;-72
2021/03/04 06:17:17;;;;;;;98.65;52.75;;;1.40;93.00;;;;;;5070251;28;20033;-73
2021/03/04 06:19:57;;;;;;;94.45;51.67;;;1.50;92.70;;;;;;5071433;28;20423;-72
2021/03/04 06:22:27;;;;;;;91.88;51.63;;;1.60;92.50;;;;;;5069716;28;20029;-73
2021/03/04 06:24:54;;;;;;;90.80;49.60;;;1.70;92.00;;;;;;5071083;28;20044;-72
2021/03/04 06:27:33;;;;;;;90.47;50.22;;;1.70;91.90;;;;;;5066355;28;20696;-72
2021/03/04 06:30:04;;;;;;;89.43;50.60;;;1.60;91.90;;;;;;5062603;28;20064;-73
2021/03/04 06:32:30;;;;;;;91.35;52.53;;;1.70;91.80;;;;;;5067942;28;20040;-71
2021/03/04 06:35:13;;;;;;;88.60;51.22;;;1.80;91.60;;;;;;5066738;28;20023;-71
2021/03/04 06:37:41;;;;;;;94.47;50.38;;;1.90;91.50;;;;;;5064709;28;20054;-71
2021/03/04 06:40:17;;;;;;;94.60;50.95;;;2.00;91.60;;;;;;5062520;28;20041;-72
2021/03/04 06:42:44;;;;;;;91.60;50.88;;;2.10;91.50;;;;;;5070338;28;20033;-73
2021/03/04 06:45:36;;;;;;;94.68;50.65;;;2.20;91.50;;;;;;5064777;28;20021;-73
2021/03/04 06:48:20;;;;;;;96.15;52.90;;;2.20;91.90;;;;;;5063816;28;20044;-73
2021/03/04 06:50:58;;;;;;;94.28;50.85;;;2.20;91.80;;;;;;5069723;28;20029;-73
2021/03/04 06:53:25;;;;;;;97.75;50.90;;;2.20;91.90;;;;;;5070127;28;20021;-74
2021/03/04 06:55:54;;;;;;;101.75;52.22;;;2.30;92.00;;;;;;5066055;28;20024;-73
2021/03/04 06:58:34;;;;;;;94.10;53.25;;;2.50;92.00;;;;;;5071440;28;20032;-74
2021/03/04 07:01:03;;;;;;;;;;;2.60;92.00;;;;;;5065601;28;20027;-72
2021/03/04 07:03:45;;;;;;;86.40;46.47;;;2.70;92.30;;;;;;5065460;28;19908;-73
2021/03/04 07:06:18;;;;;;;88.47;47.28;;;2.80;93.20;;;;;;5063007;28;20107;-73
2021/03/04 07:08:46;;;;;;;86.10;47.15;;;2.90;93.60;;;;;;5061142;28;20052;-70
2021/03/04 07:11:22;;;;;;;87.40;46.17;;;3.00;94.30;;;;;;5070952;28;20033;-73
2021/03/04 07:13:50;;;;;;;80.10;45.15;;;3.10;94.70;;;;;;5066225;28;20031;-73
2021/03/04 07:16:23;;;;;;;75.85;44.85;;;3.20;94.90;;;;;;5062629;28;20078;-73
2021/03/04 07:18:57;;;;;;;80.70;43.10;;;3.40;95.20;;;;;;5066626;28;20020;-73
2021/03/04 07:21:25;;;;;;;83.28;43.85;;;3.70;95.50;;;;;;5070585;28;20024;-74
2021/03/04 07:23:51;;;;;;;83.80;46.22;;;4.00;95.50;;;;;;5071484;28;20070;-72
2021/03/04 07:26:17;;;;;;;71.00;40.92;;;4.10;95.30;;;;;;5069699;28;20025;-71
2021/03/04 07:28:45;;;;;;;72.53;42.10;;;4.30;95.00;;;;;;5063048;28;20483;-71
2021/03/04 07:31:12;;;;;;;69.38;39.90;;;4.30;94.70;;;;;;5061774;28;20468;-70
2021/03/04 07:33:42;;;;;;;70.15;38.88;;;4.40;94.60;;;;;;5065255;28;20931;-70
2021/03/04 07:36:11;;;;;;;69.83;38.83;;;4.50;94.50;;;;;;5068029;28;20049;-68
2021/03/04 07:38:37;;;;;;;67.97;39.60;;;4.60;94.50;;;;;;5069126;28;20281;-70
2021/03/04 07:41:12;;;;;;;64.70;37.75;;;4.70;94.30;;;;;;5069874;28;20105;-68
2021/03/04 07:43:55;;;;;;;62.33;37.50;;;4.80;94.10;;;;;;5070081;28;20028;-67
2021/03/04 07:46:51;;;;;;;67.07;38.60;;;4.90;94.00;;;;;;5070529;28;20029;-71
2021/03/04 07:49:33;;;;;;;63.95;38.47;;;5.10;93.80;;;;;;5066456;28;20028;-71
2021/03/04 07:52:18;;;;;;;62.90;36.58;;;5.20;93.50;;;;;;5062730;28;20116;-72
2021/03/04 07:54:47;;;;;;;63.75;36.75;;;5.30;93.20;;;;;;5064130;28;20111;-72
2021/03/04 07:57:15;;;;;;;58.17;37.00;;;5.40;92.90;;;;;;5064605;28;20480;-69
2021/03/04 07:59:58;;;;;;;62.53;36.45;;;5.40;92.60;;;;;;5067756;28;20033;-72
2021/03/04 08:02:28;;;;;;;66.85;38.65;;;5.60;92.50;;;;;;5058548;28;20567;-72
2021/03/04 08:05:11;;;;;;;64.57;37.42;;;5.80;92.20;;;;;;5057895;28;20052;-70
2021/03/04 08:07:37;;;;;;;60.83;37.17;;;6.00;91.90;;;;;;5064188;28;20029;-70
2021/03/04 08:10:10;;;;;;;65.57;36.60;;;6.10;91.40;;;;;;5069008;28;20108;-70
2021/03/04 08:12:46;;;;;;;62.05;35.42;;;6.20;91.20;;;;;;5067215;28;20372;-72
2021/03/04 08:15:14;;;;;;;65.13;35.97;;;6.30;90.70;;;;;;5065849;28;20025;-70
2021/03/04 08:17:40;;;;;;;57.55;34.22;;;6.30;90.50;;;;;;5056820;28;20052;-70
2021/03/04 08:20:18;;;;;;;60.58;34.00;;;6.30;90.20;;;;;;5069218;28;20129;-69
2021/03/04 08:22:56;;;;;;;59.42;34.95;;;6.30;90.00;;;;;;5064684;28;20067;-72
2021/03/04 08:25:29;;;;;;;56.53;34.75;;;6.40;90.00;;;;;;5071980;28;20032;-70
2021/03/04 08:27:55;;;;;;;62.75;37.50;;;6.30;88.90;;;;;;5065872;28;20029;-70
2021/03/04 08:30:37;;;;;;;58.17;34.08;;;6.40;89.80;;;;;;5061546;28;20113;-72
2021/03/04 08:33:13;;;;;;;54.63;33.55;;;6.50;89.30;;;;;;5056700;28;20033;-72
2021/03/04 08:35:46;;;;;;;59.13;34.95;;;6.50;88.60;;;;;;5065406;28;20029;-76
2021/03/04 08:38:15;;;;;;;57.45;34.97;;;6.50;88.40;;;;;;5061472;28;20056;-72
2021/03/04 08:40:51;;;;;;;61.70;36.22;;;6.70;87.90;;;;;;5063715;28;20016;-71
2021/03/04 08:43:20;;;;;;;59.90;36.85;;;6.60;87.50;;;;;;5066551;28;20479;-72
2021/03/04 08:45:51;;;;;;;59.67;36.90;;;6.60;86.40;;;;;;5071344;28;20025;-72
2021/03/04 08:48:17;;;;;;;61.05;37.35;;;6.50;86.40;;;;;;5052427;28;20032;-72
2021/03/04 08:50:45;;;;;;;68.03;41.33;;;6.40;86.60;;;;;;5057862;28;20044;-71
2021/03/04 08:53:14;;;;;;;68.15;40.88;;;6.40;86.60;;;;;;5060158;28;20107;-68
2021/03/04 08:55:58;;;;;;;70.57;40.88;;;6.40;86.70;;;;;;5059442;28;20079;-68
2021/03/04 08:58:27;;;;;;;63.63;40.15;;;6.50;86.90;;;;;;5057341;28;20768;-71
2021/03/04 09:00:59;;;;;;;64.70;41.88;;;6.50;86.50;;;;;;5048471;28;20025;-70
2021/03/04 09:03:29;;;;;;;61.92;40.55;;;6.50;85.30;;;;;;5059156;28;20048;-72
2021/03/04 09:06:08;;;;;;;67.10;42.83;;;6.40;85.20;;;;;;5053658;28;20032;-71
2021/03/04 09:08:38;;;;;;;66.93;43.15;;;6.50;84.80;;;;;;5061728;28;20115;-73
2021/03/04 09:11:08;;;;;;;67.65;42.90;;;6.50;84.20;;;;;;5060233;28;20476;-73
2021/03/04 09:13:34;;;;;;;65.97;42.78;;;6.50;83.60;;;;;;5064151;28;20405;-72
2021/03/04 09:16:05;;;;;;;69.18;43.78;;;6.60;83.50;;;;;;5065116;28;20027;-70
2021/03/04 09:18:40;;;;;;;73.95;44.40;;;6.60;83.50;;;;;;5057162;28;20471;-68
2021/03/04 09:21:09;;;;;;;68.15;43.13;;;6.60;83.30;;;;;;5057668;28;20101;-71
2021/03/04 09:23:35;;;;;;;59.65;40.13;;;6.60;83.30;;;;;;5055646;28;20032;-68
2021/03/04 09:26:01;;;;;;;63.03;42.10;;;6.50;82.50;;;;;;5061167;28;20029;-72
2021/03/04 09:28:27;;;;;;;65.28;42.45;;;6.50;82.90;;;;;;5054907;28;20035;-72
2021/03/04 09:30:53;;;;;;;67.95;44.42;;;6.60;83.20;;;;;;5056915;28;20059;-68
2021/03/04 09:33:21;;;;;;;65.20;42.35;;;6.60;82.80;;;;;;5054768;28;20033;-69
2021/03/04 09:35:55;;;;;;;59.45;40.70;;;6.50;82.60;;;;;;5054823;28;20123;-70
2021/03/04 09:38:20;;;;;;;55.75;37.67;;;6.30;81.90;;;;;;5057913;28;20091;-67
2021/03/04 09:40:46;;;;;;;61.42;40.38;;;6.30;82.20;;;;;;5057127;28;20024;-71
2021/03/04 09:43:28;;;;;;;56.75;36.45;;;6.10;82.60;;;;;;5056386;28;20037;-68
2021/03/04 09:45:53;;;;;;;55.10;36.78;;;6.10;82.60;;;;;;5055375;28;20036;-67
2021/03/04 09:48:39;;;;;;;54.33;36.40;;;5.90;83.10;;;;;;5058446;28;20040;-69
2021/03/04 09:51:06;;;;;;;54.83;34.92;;;5.80;83.60;;;;;;5057314;28;20032;-68
2021/03/04 09:53:48;;;;;;;55.55;35.08;;;5.80;83.90;;;;;;5055150;28;20556;-69
2021/03/04 09:56:21;;;;;;;52.00;34.95;;;5.70;84.20;;;;;;5055539;28;20017;-69
2021/03/04 09:58:47;;;;;;;48.63;31.20;;;5.70;84.10;;;;;;5061747;28;21825;-69
2021/03/04 10:01:13;;;;;;;49.92;32.88;;;5.70;83.70;;;;;;5064369;28;20028;-69
2021/03/04 10:03:40;;;;;;;52.38;32.65;;;5.70;83.10;;;;;;5063697;28;20166;-72
2021/03/04 10:06:18;;;;;;;51.90;32.50;;;5.70;83.30;;;;;;5065609;28;20028;-71
2021/03/04 10:08:44;;;;;;;49.95;30.60;;;5.70;82.60;;;;;;5062794;28;20032;-71
2021/03/04 10:11:23;;;;;;;45.42;30.65;;;5.60;81.60;;;;;;5062399;28;20073;-70
2021/03/04 10:13:49;;;;;;;49.67;32.25;;;5.60;81.60;;;;;;5062366;28;20042;-71
2021/03/04 10:16:15;;;;;;;49.17;31.40;;;5.60;81.10;;;;;;5053285;28;20017;-72
2021/03/04 10:18:43;;;;;;;48.72;32.92;;;5.50;80.80;;;;;;5051812;28;20119;-72
2021/03/04 10:21:09;;;;;;;53.33;33.72;;;5.50;81.00;;;;;;5058869;28;20399;-70
2021/03/04 10:23:35;;;;;;;53.22;33.17;;;5.40;81.10;;;;;;5060154;28;20090;-69
2021/03/04 10:26:01;;;;;;;52.28;34.22;;;5.40;82.00;;;;;;5063171;28;20386;-70
2021/03/04 10:28:27;;;;;;;53.80;33.80;;;5.40;81.80;;;;;;5063164;28;20032;-71
2021/03/04 10:30:53;;;;;;;53.70;32.78;;;5.30;81.80;;;;;;5059575;28;20514;-68
2021/03/04 10:33:18;;;;;;;50.83;33.35;;;5.30;82.10;;;;;;5058961;28;20036;-72
2021/03/04 10:35:44;;;;;;;48.95;32.00;;;5.30;82.20;;;;;;5056453;28;20035;-68
2021/03/04 10:38:10;;;;;;;49.10;31.63;;;5.20;82.50;;;;;;5059555;28;20118;-69
2021/03/04 10:40:36;;;;;;;46.65;29.13;;;5.20;82.20;;;;;;5058360;28;20029;-72
2021/03/04 10:43:02;;;;;;;49.00;31.40;;;5.20;82.20;;;;;;5053163;28;20032;-72
2021/03/04 10:45:27;;;;;;;50.35;32.50;;;5.20;82.10;;;;;;5059632;28;20037;-72
2021/03/04 10:47:53;;;;;;;52.78;31.02;;;5.10;82.50;;;;;;5057414;28;20052;-71
2021/03/04 10:50:21;;;;;;;50.15;32.55;;;5.10;82.50;;;;;;5054960;28;20039;-72
2021/03/04 10:52:47;;;;;;;49.60;31.55;;;5.10;82.80;;;;;;5050410;28;20040;-72
2021/03/04 10:55:15;;;;;;;49.10;31.48;;;5.10;82.80;;;;;;5057236;28;20403;-73
2021/03/04 10:57:41;;;;;;;51.85;32.20;;;5.00;82.60;;;;;;5060626;28;20016;-73
2021/03/04 11:00:09;;;;;;;52.13;32.60;;;5.10;83.10;;;;;;5059286;28;20036;-72
2021/03/04 11:02:36;;;;;;;49.17;30.45;;;5.10;83.00;;;;;;5057558;28;20024;-68
2021/03/04 11:05:02;;;;;;;53.38;32.42;;;5.10;82.90;;;;;;5059633;28;20064;-71
2021/03/04 11:07:28;;;;;;;46.17;29.65;;;5.10;82.50;;;;;;5061681;28;20017;-71
2021/03/04 11:09:54;;;;;;;50.28;32.70;;;5.10;82.40;;;;;;5066845;28;20029;-72
2021/03/04 11:12:20;;;;;;;47.30;30.65;;;5.20;82.50;;;;;;5055017;28;20063;-70
2021/03/04 11:14:46;;;;;;;50.10;30.95;;;5.20;82.90;;;;;;5059689;28;20025;-71
2021/03/04 11:17:12;;;;;;;54.10;31.50;;;5.30;82.40;;;;;;5058165;28;20036;-71
2021/03/04 11:19:38;;;;;;;51.80;31.23;;;5.30;82.20;;;;;;5060317;28;20487;-72
2021/03/04 11:22:04;;;;;;;50.35;32.08;;;5.30;82.30;;;;;;5065099;28;20112;-72
2021/03/04 11:24:29;;;;;;;54.08;31.25;;;5.20;82.00;;;;;;5060750;28;20025;-72
2021/03/04 11:26:55;;;;;;;51.10;32.22;;;5.20;82.10;;;;;;5054318;28;20059;-72
2021/03/04 11:29:21;;;;;;;49.63;31.27;;;5.10;82.40;;;;;;5062338;28;20063;-71
2021/03/04 11:31:47;;;;;;;46.88;29.17;;;5.20;82.70;;;;;;5059397;28;20051;-72
2021/03/04 11:34:13;;;;;;;44.20;28.02;;;5.10;82.40;;;;;;5062682;28;20107;-68
2021/03/04 11:36:39;;;;;;;49.13;28.90;;;5.00;82.50;;;;;;5063466;28;20021;-72
2021/03/04 11:39:05;;;;;;;46.08;27.63;;;5.00;82.80;;;;;;5056407;28;20041;-68
2021/03/04 11:41:31;;;;;;;38.70;26.17;;;5.00;82.50;;;;;;5055005;28;20025;-72
2021/03/04 11:43:57;;;;;;;47.15;26.83;;;4.90;82.40;;;;;;5058421;28;20044;-73
2021/03/04 11:46:24;;;;;;;47.05;29.45;;;4.80;83.00;;;;;;5055524;28;20032;-73
2021/03/04 11:48:51;;;;;;;49.70;29.83;;;4.80;83.40;;;;;;5058976;28;20518;-72
2021/03/04 11:51:18;;;;;;;49.47;29.75;;;4.80;83.00;;;;;;5057215;28;20032;-72
2021/03/04 11:53:44;;;;;;;48.80;30.02;;;4.80;83.30;;;;;;5046154;28;20382;-68
2021/03/04 11:56:10;;;;;;;42.28;26.90;;;4.80;83.30;;;;;;5061556;28;20040;-68
2021/03/04 11:58:36;;;;;;;40.72;25.88;;;4.70;82.40;;;;;;5063390;28;20515;-72
2021/03/04 12:01:02;;;;;;;43.03;27.08;;;4.70;82.50;;;;;;5060526;28;20058;-70
2021/03/04 12:03:28;;;;;;;45.10;27.13;;;4.70;82.60;;;;;;5055161;28;20028;-71
2021/03/04 12:05:54;;;;;;;44.83;26.10;;;4.70;82.10;;;;;;5051412;28;20085;-68
2021/03/04 12:08:19;;;;;;;40.70;25.35;;;4.70;82.20;;;;;;5052665;28;20040;-72
2021/03/04 12:10:45;;;;;;;41.05;24.08;;;4.80;82.20;;;;;;5059898;28;20115;-68
2021/03/04 12:13:12;;;;;;;46.35;26.60;;;4.70;82.10;;;;;;5061247;28;20462;-68
2021/03/04 12:15:39;;;;;;;42.13;26.13;;;4.70;82.40;;;;;;5058707;28;20380;-70
2021/03/04 12:18:05;;;;;;;45.70;25.90;;;4.70;82.40;;;;;;5055983;28;20032;-67
2021/03/04 12:20:31;;;;;;;41.47;24.20;;;4.70;82.80;;;;;;5064287;28;20062;-67
2021/03/04 12:22:58;;;;;;;37.92;24.00;;;4.70;82.90;;;;;;5062110;28;20064;-68
2021/03/04 12:25:24;;;;;;;40.20;23.05;;;4.60;82.40;;;;;;5061441;28;20064;-68
2021/03/04 12:27:50;;;;;;;37.00;22.88;;;4.60;82.40;;;;;;5059241;28;20044;-68
2021/03/04 12:30:17;;;;;;;37.22;21.40;;;4.60;82.60;;;;;;5053458;28;20467;-72
2021/03/04 12:32:43;;;;;;;34.03;20.60;;;4.60;82.20;;;;;;5054624;28;20052;-72
2021/03/04 12:35:10;;;;;;;34.50;19.90;;;4.60;82.10;;;;;;5053574;28;20048;-72
2021/03/04 12:37:35;;;;;;;37.95;21.25;;;4.60;82.30;;;;;;5065508;28;20165;-72